UAL5592 KDCA-KMDW
Flight info
| Callsign | UAL5592 |
|---|---|
| Flight time | 1h 36m |
| Altitude | 36000 |
| Route | WYNGS5 RAMAY Q72 HACKS J149 FWA PANGG7 |
| Aircraft | B38M/M-SDE1FGHILORVWXY/HB1 |
Departure
| Time | 2026-04-23 00:02 |
|---|---|
| Airport | Ronald Reagan Washington National Airport (KDCA) |
Arrival
| Time | 2026-04-23 01:38 |
|---|---|
| Airport | Chicago Midway International Airport (KMDW) |
| Time | Latitude | Longitude | Altitude | Speed | Heading |
|---|---|---|---|---|---|
| 2026-04-22 23:38 | 38.85469 | -77.04195 | 27 ft | 0 kts | 169° |
| 2026-04-22 23:53 | 38.85483 | -77.04202 | 28 ft | 2 kts | 143° |
| 2026-04-22 23:53 | 38.85493 | -77.04218 | 28 ft | 2 kts | 109° |
| 2026-04-22 23:53 | 38.85496 | -77.04239 | 28 ft | 2 kts | 88° |
| 2026-04-22 23:53 | 38.85494 | -77.04259 | 29 ft | 2 kts | 76° |
| 2026-04-22 23:54 | 38.85493 | -77.04265 | 29 ft | 0 kts | 73° |
| 2026-04-22 23:57 | 38.85493 | -77.04263 | 29 ft | 1 kts | 73° |
| 2026-04-22 23:57 | 38.85500 | -77.04236 | 28 ft | 5 kts | 73° |
| 2026-04-22 23:58 | 38.85515 | -77.04179 | 27 ft | 8 kts | 70° |
| 2026-04-22 23:58 | 38.85535 | -77.04110 | 26 ft | 5 kts | 70° |
| 2026-04-22 23:58 | 38.85547 | -77.04064 | 26 ft | 4 kts | 72° |
| 2026-04-22 23:58 | 38.85568 | -77.04042 | 30 ft | 4 kts | 10° |
| 2026-04-22 23:59 | 38.85598 | -77.04040 | 27 ft | 5 kts | 3° |
| 2026-04-22 23:59 | 38.85634 | -77.04041 | 28 ft | 5 kts | 356° |
| 2026-04-22 23:59 | 38.85674 | -77.04046 | 29 ft | 7 kts | 353° |
| 2026-04-22 23:59 | 38.85730 | -77.04054 | 29 ft | 10 kts | 354° |
| 2026-04-23 00:00 | 38.85916 | -77.04050 | 26 ft | 15 kts | 33° |
| 2026-04-23 00:00 | 38.85984 | -77.03971 | 27 ft | 12 kts | 27° |
| 2026-04-23 00:00 | 38.86023 | -77.03954 | 26 ft | 7 kts | 15° |
| 2026-04-23 00:01 | 38.86082 | -77.03928 | 24 ft | 10 kts | 30° |
| 2026-04-23 00:01 | 38.86088 | -77.03875 | 26 ft | 6 kts | 140° |
| 2026-04-23 00:01 | 38.86074 | -77.03870 | 22 ft | 0 kts | 172° |
| 2026-04-23 00:01 | 38.85981 | -77.03858 | 27 ft | 49 kts | 175° |
| 2026-04-23 00:02 | 38.85326 | -77.03793 | 24 ft | 137 kts | 175° |
| 2026-04-23 00:02 | 38.84190 | -77.03683 | 423 ft | 178 kts | 176° |
| 2026-04-23 00:02 | 38.82906 | -77.03540 | 1006 ft | 181 kts | 175° |
| 2026-04-23 00:02 | 38.81670 | -77.03364 | 1502 ft | 177 kts | 175° |
| 2026-04-23 00:03 | 38.80436 | -77.03371 | 2012 ft | 177 kts | 183° |
| 2026-04-23 00:03 | 38.79207 | -77.03417 | 2526 ft | 180 kts | 182° |
| 2026-04-23 00:03 | 38.77935 | -77.03438 | 3044 ft | 184 kts | 184° |
| 2026-04-23 00:03 | 38.76593 | -77.03662 | 3550 ft | 206 kts | 205° |
| 2026-04-23 00:04 | 38.75432 | -77.04815 | 4115 ft | 223 kts | 237° |
| 2026-04-23 00:04 | 38.74864 | -77.06727 | 4894 ft | 230 kts | 266° |
| 2026-04-23 00:04 | 38.74743 | -77.08780 | 6047 ft | 235 kts | 267° |
| 2026-04-23 00:04 | 38.74600 | -77.10913 | 7004 ft | 247 kts | 268° |
| 2026-04-23 00:05 | 38.74453 | -77.13158 | 7816 ft | 264 kts | 268° |
| 2026-04-23 00:05 | 38.74473 | -77.15521 | 8860 ft | 264 kts | 283° |
| 2026-04-23 00:05 | 38.74990 | -77.17795 | 9871 ft | 268 kts | 288° |
| 2026-04-23 00:05 | 38.75503 | -77.20125 | 10704 ft | 281 kts | 287° |
| 2026-04-23 00:06 | 38.76036 | -77.22618 | 11366 ft | 298 kts | 287° |
| 2026-04-23 00:06 | 38.76589 | -77.25249 | 12130 ft | 307 kts | 287° |
| 2026-04-23 00:06 | 38.77138 | -77.27890 | 13080 ft | 310 kts | 287° |
| 2026-04-23 00:06 | 38.77695 | -77.30587 | 13966 ft | 314 kts | 287° |
| 2026-04-23 00:07 | 38.78258 | -77.33313 | 14814 ft | 318 kts | 287° |
| 2026-04-23 00:07 | 38.78830 | -77.36092 | 15631 ft | 323 kts | 287° |
| 2026-04-23 00:07 | 38.79403 | -77.38879 | 16434 ft | 326 kts | 287° |
| 2026-04-23 00:07 | 38.79978 | -77.41685 | 17195 ft | 329 kts | 287° |
| 2026-04-23 00:08 | 38.80569 | -77.44562 | 17924 ft | 333 kts | 287° |
| 2026-04-23 00:08 | 38.81156 | -77.47433 | 18631 ft | 336 kts | 287° |
| 2026-04-23 00:08 | 38.81754 | -77.50356 | 19304 ft | 340 kts | 287° |
| 2026-04-23 00:08 | 38.82361 | -77.53329 | 19984 ft | 343 kts | 287° |
| 2026-04-23 00:09 | 38.82960 | -77.56267 | 20614 ft | 346 kts | 287° |
| 2026-04-23 00:09 | 38.83571 | -77.59274 | 21217 ft | 350 kts | 287° |
| 2026-04-23 00:09 | 38.84191 | -77.62321 | 21833 ft | 353 kts | 287° |
| 2026-04-23 00:09 | 38.84813 | -77.65388 | 22413 ft | 356 kts | 287° |
| 2026-04-23 00:10 | 38.85435 | -77.68453 | 22852 ft | 362 kts | 287° |
| 2026-04-23 00:10 | 38.86069 | -77.71585 | 22961 ft | 361 kts | 287° |
| 2026-04-23 00:10 | 38.86703 | -77.74726 | 22987 ft | 360 kts | 287° |
| 2026-04-23 00:10 | 38.87325 | -77.77809 | 23002 ft | 360 kts | 287° |
| 2026-04-23 00:11 | 38.87953 | -77.80925 | 23003 ft | 360 kts | 287° |
| 2026-04-23 00:11 | 38.88580 | -77.84039 | 23009 ft | 360 kts | 287° |
| 2026-04-23 00:11 | 38.89207 | -77.87163 | 23009 ft | 360 kts | 287° |
| 2026-04-23 00:11 | 38.89828 | -77.90257 | 23010 ft | 360 kts | 287° |
| 2026-04-23 00:12 | 38.90444 | -77.93330 | 23009 ft | 360 kts | 287° |
| 2026-04-23 00:12 | 38.91073 | -77.96478 | 23015 ft | 360 kts | 287° |
| 2026-04-23 00:12 | 38.91696 | -77.99592 | 23011 ft | 360 kts | 287° |
| 2026-04-23 00:12 | 38.92315 | -78.02696 | 23006 ft | 360 kts | 287° |
| 2026-04-23 00:13 | 38.92940 | -78.05838 | 23014 ft | 361 kts | 287° |
| 2026-04-23 00:13 | 38.93561 | -78.08965 | 23013 ft | 361 kts | 287° |
| 2026-04-23 00:13 | 38.94179 | -78.12073 | 23007 ft | 361 kts | 287° |
| 2026-04-23 00:13 | 38.94802 | -78.15220 | 23006 ft | 361 kts | 287° |
| 2026-04-23 00:14 | 38.95418 | -78.18333 | 23007 ft | 361 kts | 287° |
| 2026-04-23 00:14 | 38.96019 | -78.21483 | 23004 ft | 362 kts | 283° |
| 2026-04-23 00:14 | 38.96268 | -78.24692 | 23015 ft | 364 kts | 278° |
| 2026-04-23 00:14 | 38.96482 | -78.27953 | 23007 ft | 364 kts | 278° |
| 2026-04-23 00:15 | 38.96692 | -78.31178 | 23010 ft | 364 kts | 278° |
| 2026-04-23 00:15 | 38.96903 | -78.34436 | 23011 ft | 364 kts | 278° |
| 2026-04-23 00:15 | 38.97111 | -78.37663 | 23005 ft | 364 kts | 278° |
| 2026-04-23 00:15 | 38.97319 | -78.40917 | 23006 ft | 364 kts | 278° |
| 2026-04-23 00:16 | 38.97525 | -78.44148 | 23009 ft | 364 kts | 278° |
| 2026-04-23 00:16 | 38.97733 | -78.47418 | 23013 ft | 364 kts | 278° |
| 2026-04-23 00:16 | 38.97935 | -78.50633 | 23013 ft | 364 kts | 278° |
| 2026-04-23 00:16 | 38.98141 | -78.53901 | 23012 ft | 364 kts | 278° |
| 2026-04-23 00:17 | 38.98342 | -78.57106 | 23304 ft | 362 kts | 278° |
| 2026-04-23 00:17 | 38.98545 | -78.60351 | 23800 ft | 366 kts | 278° |
| 2026-04-23 00:17 | 38.98751 | -78.63663 | 24304 ft | 371 kts | 278° |
| 2026-04-23 00:17 | 38.98956 | -78.66980 | 24833 ft | 374 kts | 278° |
| 2026-04-23 00:18 | 38.99161 | -78.70317 | 25341 ft | 376 kts | 279° |
| 2026-04-23 00:18 | 38.99300 | -78.72582 | 25685 ft | 378 kts | 279° |
| 2026-04-23 00:18 | 38.99507 | -78.75974 | 26153 ft | 381 kts | 279° |
| 2026-04-23 00:18 | 38.99712 | -78.79367 | 26624 ft | 384 kts | 279° |
| 2026-04-23 00:19 | 38.99921 | -78.82813 | 27090 ft | 386 kts | 279° |
| 2026-04-23 00:19 | 39.00127 | -78.86232 | 27533 ft | 389 kts | 279° |
| 2026-04-23 00:19 | 39.00335 | -78.89719 | 27969 ft | 391 kts | 279° |
| 2026-04-23 00:19 | 39.00542 | -78.93201 | 28388 ft | 394 kts | 280° |
| 2026-04-23 00:20 | 39.00752 | -78.96747 | 28816 ft | 397 kts | 279° |
| 2026-04-23 00:20 | 39.00960 | -79.00273 | 29266 ft | 398 kts | 280° |
| 2026-04-23 00:20 | 39.01171 | -79.03874 | 29620 ft | 402 kts | 280° |
| 2026-04-23 00:20 | 39.01379 | -79.07432 | 29985 ft | 404 kts | 280° |
| 2026-04-23 00:21 | 39.01659 | -79.12269 | 30515 ft | 406 kts | 280° |
| 2026-04-23 00:21 | 39.01799 | -79.14673 | 30755 ft | 408 kts | 280° |
| 2026-04-23 00:21 | 39.02025 | -79.18320 | 31090 ft | 410 kts | 281° |
| 2026-04-23 00:21 | 39.02270 | -79.21980 | 31412 ft | 412 kts | 281° |
| 2026-04-23 00:22 | 39.02514 | -79.25676 | 31722 ft | 415 kts | 280° |
| 2026-04-23 00:22 | 39.02755 | -79.29382 | 32062 ft | 417 kts | 280° |
| 2026-04-23 00:22 | 39.02998 | -79.33110 | 32387 ft | 419 kts | 281° |
| 2026-04-23 00:22 | 39.03239 | -79.36860 | 32744 ft | 420 kts | 281° |
| 2026-04-23 00:23 | 39.03480 | -79.40604 | 33169 ft | 419 kts | 281° |
| 2026-04-23 00:23 | 39.03718 | -79.44333 | 33588 ft | 418 kts | 281° |
| 2026-04-23 00:23 | 39.03956 | -79.48059 | 33999 ft | 417 kts | 280° |
| 2026-04-23 00:23 | 39.04191 | -79.51771 | 34399 ft | 416 kts | 281° |
| 2026-04-23 00:24 | 39.04425 | -79.55480 | 34781 ft | 416 kts | 281° |
| 2026-04-23 00:24 | 39.04657 | -79.59184 | 35168 ft | 415 kts | 281° |
| 2026-04-23 00:24 | 39.04888 | -79.62885 | 35515 ft | 414 kts | 281° |
| 2026-04-23 00:24 | 39.05117 | -79.66575 | 35841 ft | 413 kts | 281° |
| 2026-04-23 00:25 | 39.05344 | -79.70260 | 36080 ft | 414 kts | 281° |
| 2026-04-23 00:25 | 39.05795 | -79.77620 | 36089 ft | 411 kts | 281° |
| 2026-04-23 00:26 | 39.06239 | -79.84939 | 36089 ft | 411 kts | 280° |
| 2026-04-23 00:26 | 39.06678 | -79.92269 | 36089 ft | 410 kts | 280° |
| 2026-04-23 00:27 | 39.07113 | -79.99579 | 36097 ft | 410 kts | 280° |
| 2026-04-23 00:27 | 39.07542 | -80.06899 | 36088 ft | 411 kts | 280° |
| 2026-04-23 00:28 | 39.07966 | -80.14203 | 36092 ft | 412 kts | 280° |
| 2026-04-23 00:28 | 39.08390 | -80.21567 | 36091 ft | 412 kts | 280° |
| 2026-04-23 00:29 | 39.08810 | -80.28939 | 36097 ft | 413 kts | 279° |
| 2026-04-23 00:29 | 39.09209 | -80.36302 | 36090 ft | 412 kts | 279° |
| 2026-04-23 00:30 | 39.09606 | -80.43665 | 36086 ft | 412 kts | 279° |
| 2026-04-23 00:30 | 39.09999 | -80.51035 | 36080 ft | 412 kts | 279° |
| 2026-04-23 00:31 | 39.10387 | -80.58407 | 36085 ft | 413 kts | 279° |
| 2026-04-23 00:31 | 39.10772 | -80.65791 | 36086 ft | 413 kts | 279° |
| 2026-04-23 00:32 | 39.11151 | -80.73167 | 36074 ft | 413 kts | 279° |
| 2026-04-23 00:32 | 39.11526 | -80.80546 | 36073 ft | 414 kts | 279° |
| 2026-04-23 00:33 | 39.11897 | -80.87935 | 36074 ft | 413 kts | 279° |
| 2026-04-23 00:33 | 39.12263 | -80.95334 | 36075 ft | 414 kts | 279° |
| 2026-04-23 00:34 | 39.12625 | -81.02738 | 36074 ft | 415 kts | 279° |
| 2026-04-23 00:34 | 39.13487 | -81.09980 | 36058 ft | 401 kts | 298° |
| 2026-04-23 00:35 | 39.15938 | -81.16377 | 36059 ft | 402 kts | 300° |
| 2026-04-23 00:35 | 39.18502 | -81.22788 | 36069 ft | 402 kts | 301° |
| 2026-04-23 00:36 | 39.21098 | -81.29156 | 36060 ft | 401 kts | 301° |
| 2026-04-23 00:36 | 39.23703 | -81.35528 | 36052 ft | 402 kts | 301° |
| 2026-04-23 00:37 | 39.26307 | -81.41906 | 36052 ft | 402 kts | 301° |
| 2026-04-23 00:37 | 39.28909 | -81.48295 | 36053 ft | 402 kts | 301° |
| 2026-04-23 00:38 | 39.31518 | -81.54710 | 36050 ft | 403 kts | 301° |
| 2026-04-23 00:38 | 39.34115 | -81.61109 | 36052 ft | 402 kts | 301° |
| 2026-04-23 00:39 | 39.36695 | -81.67480 | 36052 ft | 402 kts | 301° |
| 2026-04-23 00:39 | 39.39303 | -81.73933 | 36061 ft | 402 kts | 301° |
| 2026-04-23 00:40 | 39.41874 | -81.80314 | 36051 ft | 403 kts | 301° |
| 2026-04-23 00:40 | 39.44459 | -81.86740 | 36052 ft | 403 kts | 301° |
| 2026-04-23 00:41 | 39.47047 | -81.93190 | 36058 ft | 403 kts | 301° |
| 2026-04-23 00:41 | 39.49628 | -81.99633 | 36062 ft | 403 kts | 301° |
| 2026-04-23 00:42 | 39.52210 | -82.06095 | 36064 ft | 405 kts | 301° |
| 2026-04-23 00:42 | 39.54797 | -82.12584 | 36070 ft | 405 kts | 300° |
| 2026-04-23 00:43 | 39.57369 | -82.19048 | 36070 ft | 404 kts | 300° |
| 2026-04-23 00:43 | 39.59930 | -82.25495 | 36072 ft | 404 kts | 301° |
| 2026-04-23 00:44 | 39.62499 | -82.31980 | 36082 ft | 405 kts | 300° |
| 2026-04-23 00:44 | 39.65073 | -82.38490 | 36082 ft | 405 kts | 300° |
| 2026-04-23 00:45 | 39.67638 | -82.44994 | 36087 ft | 405 kts | 300° |
| 2026-04-23 00:45 | 39.70202 | -82.51505 | 36091 ft | 405 kts | 300° |
| 2026-04-23 00:46 | 39.72765 | -82.58030 | 36091 ft | 405 kts | 300° |
| 2026-04-23 00:46 | 39.75322 | -82.64554 | 36100 ft | 405 kts | 300° |
| 2026-04-23 00:47 | 39.77862 | -82.71049 | 36100 ft | 405 kts | 300° |
| 2026-04-23 00:47 | 39.80413 | -82.77585 | 36090 ft | 406 kts | 300° |
| 2026-04-23 00:48 | 39.82966 | -82.84139 | 36061 ft | 405 kts | 300° |
| 2026-04-23 00:48 | 39.85512 | -82.90694 | 36035 ft | 406 kts | 300° |
| 2026-04-23 00:49 | 39.88086 | -82.97332 | 36035 ft | 416 kts | 300° |
| 2026-04-23 00:49 | 39.90698 | -83.04084 | 36051 ft | 418 kts | 300° |
| 2026-04-23 00:50 | 39.93310 | -83.10846 | 36078 ft | 418 kts | 300° |
| 2026-04-23 00:50 | 39.95917 | -83.17613 | 36101 ft | 418 kts | 300° |
| 2026-04-23 00:51 | 39.98517 | -83.24385 | 36102 ft | 418 kts | 300° |
| 2026-04-23 00:51 | 40.01117 | -83.31169 | 36106 ft | 417 kts | 300° |
| 2026-04-23 00:52 | 40.03701 | -83.37925 | 36101 ft | 415 kts | 300° |
| 2026-04-23 00:52 | 40.06276 | -83.44672 | 36101 ft | 415 kts | 300° |
| 2026-04-23 00:53 | 40.08850 | -83.51433 | 36092 ft | 416 kts | 300° |
| 2026-04-23 00:53 | 40.11411 | -83.58175 | 36092 ft | 417 kts | 299° |
| 2026-04-23 00:54 | 40.13983 | -83.64960 | 36084 ft | 417 kts | 300° |
| 2026-04-23 00:54 | 40.16550 | -83.71748 | 36076 ft | 417 kts | 299° |
| 2026-04-23 00:55 | 40.19115 | -83.78548 | 36073 ft | 417 kts | 300° |
| 2026-04-23 00:55 | 40.21680 | -83.85363 | 36074 ft | 418 kts | 299° |
| 2026-04-23 00:56 | 40.24243 | -83.92190 | 36073 ft | 418 kts | 299° |
| 2026-04-23 00:56 | 40.26805 | -83.99028 | 36072 ft | 418 kts | 299° |
| 2026-04-23 00:57 | 40.29612 | -84.05605 | 36073 ft | 412 kts | 312° |
| 2026-04-23 00:57 | 40.33209 | -84.11489 | 36074 ft | 414 kts | 310° |
| 2026-04-23 00:58 | 40.36802 | -84.17378 | 36073 ft | 413 kts | 311° |
| 2026-04-23 00:58 | 40.40399 | -84.23261 | 36057 ft | 413 kts | 311° |
| 2026-04-23 00:59 | 40.43989 | -84.29139 | 36060 ft | 413 kts | 311° |
| 2026-04-23 00:59 | 40.47577 | -84.35027 | 36057 ft | 412 kts | 311° |
| 2026-04-23 01:00 | 40.50555 | -84.39921 | 36059 ft | 413 kts | 310° |
| 2026-04-23 01:00 | 40.54736 | -84.46805 | 36053 ft | 411 kts | 310° |
| 2026-04-23 01:01 | 40.57696 | -84.51689 | 36060 ft | 411 kts | 310° |
| 2026-04-23 01:01 | 40.59486 | -84.54646 | 35818 ft | 411 kts | 310° |
| 2026-04-23 01:01 | 40.61263 | -84.57584 | 35407 ft | 410 kts | 310° |
| 2026-04-23 01:01 | 40.63044 | -84.60532 | 34994 ft | 412 kts | 310° |
| 2026-04-23 01:02 | 40.64806 | -84.63451 | 34585 ft | 413 kts | 310° |
| 2026-04-23 01:02 | 40.66620 | -84.66459 | 34168 ft | 414 kts | 310° |
| 2026-04-23 01:02 | 40.68387 | -84.69392 | 33746 ft | 415 kts | 310° |
| 2026-04-23 01:02 | 40.70184 | -84.72378 | 33344 ft | 417 kts | 310° |
| 2026-04-23 01:03 | 40.71989 | -84.75380 | 32925 ft | 419 kts | 310° |
| 2026-04-23 01:03 | 40.73803 | -84.78399 | 32505 ft | 420 kts | 310° |
| 2026-04-23 01:03 | 40.75618 | -84.81423 | 32086 ft | 422 kts | 310° |
| 2026-04-23 01:03 | 40.77439 | -84.84460 | 31657 ft | 424 kts | 310° |
| 2026-04-23 01:04 | 40.79271 | -84.87520 | 31243 ft | 425 kts | 310° |
| 2026-04-23 01:04 | 40.81104 | -84.90584 | 30823 ft | 426 kts | 310° |
| 2026-04-23 01:04 | 40.84793 | -84.96757 | 30090 ft | 429 kts | 309° |
| 2026-04-23 01:05 | 40.88508 | -85.02988 | 30041 ft | 433 kts | 309° |
| 2026-04-23 01:05 | 40.92233 | -85.09247 | 30033 ft | 433 kts | 309° |
| 2026-04-23 01:06 | 40.95968 | -85.15533 | 30237 ft | 435 kts | 309° |
| 2026-04-23 01:06 | 40.97986 | -85.18511 | 30684 ft | 434 kts | 320° |
| 2026-04-23 01:06 | 41.00475 | -85.20731 | 30771 ft | 431 kts | 329° |
| 2026-04-23 01:07 | 41.05592 | -85.24828 | 30559 ft | 429 kts | 328° |
| 2026-04-23 01:07 | 41.08125 | -85.26837 | 30447 ft | 429 kts | 329° |
| 2026-04-23 01:07 | 41.10729 | -85.28894 | 30332 ft | 430 kts | 329° |
| 2026-04-23 01:08 | 41.13265 | -85.30896 | 30217 ft | 430 kts | 328° |
| 2026-04-23 01:08 | 41.15843 | -85.32934 | 30191 ft | 433 kts | 328° |
| 2026-04-23 01:08 | 41.18428 | -85.34977 | 30075 ft | 431 kts | 328° |
| 2026-04-23 01:08 | 41.21001 | -85.37014 | 30080 ft | 431 kts | 328° |
| 2026-04-23 01:09 | 41.23577 | -85.39053 | 29861 ft | 429 kts | 328° |
| 2026-04-23 01:09 | 41.26124 | -85.41072 | 29299 ft | 422 kts | 328° |
| 2026-04-23 01:09 | 41.28628 | -85.43058 | 28747 ft | 417 kts | 329° |
| 2026-04-23 01:09 | 41.31103 | -85.45024 | 28194 ft | 412 kts | 329° |
| 2026-04-23 01:10 | 41.33414 | -85.47232 | 27629 ft | 408 kts | 317° |
| 2026-04-23 01:10 | 41.35211 | -85.50112 | 27121 ft | 405 kts | 303° |
| 2026-04-23 01:10 | 41.36428 | -85.53478 | 26611 ft | 403 kts | 291° |
| 2026-04-23 01:10 | 41.37112 | -85.57092 | 26098 ft | 402 kts | 285° |
| 2026-04-23 01:11 | 41.37736 | -85.60652 | 25583 ft | 398 kts | 287° |
| 2026-04-23 01:11 | 41.38387 | -85.64223 | 25048 ft | 395 kts | 287° |
| 2026-04-23 01:11 | 41.39049 | -85.67783 | 24255 ft | 399 kts | 287° |
| 2026-04-23 01:11 | 41.39731 | -85.71387 | 23448 ft | 403 kts | 287° |
| 2026-04-23 01:12 | 41.40416 | -85.75017 | 22723 ft | 404 kts | 287° |
| 2026-04-23 01:12 | 41.41103 | -85.78657 | 21994 ft | 405 kts | 287° |
| 2026-04-23 01:12 | 41.41788 | -85.82301 | 21262 ft | 406 kts | 287° |
| 2026-04-23 01:12 | 41.42469 | -85.85940 | 20535 ft | 401 kts | 286° |
| 2026-04-23 01:13 | 41.43132 | -85.89503 | 19779 ft | 393 kts | 286° |
| 2026-04-23 01:13 | 41.43783 | -85.93017 | 19009 ft | 386 kts | 286° |
| 2026-04-23 01:13 | 41.44424 | -85.96474 | 18235 ft | 380 kts | 286° |
| 2026-04-23 01:13 | 41.45052 | -85.99867 | 17465 ft | 373 kts | 286° |
| 2026-04-23 01:14 | 41.45658 | -86.03149 | 16705 ft | 366 kts | 286° |
| 2026-04-23 01:14 | 41.46261 | -86.06418 | 15934 ft | 360 kts | 286° |
| 2026-04-23 01:14 | 41.46854 | -86.09636 | 15162 ft | 355 kts | 286° |
| 2026-04-23 01:14 | 41.47439 | -86.12808 | 14387 ft | 350 kts | 285° |
| 2026-04-23 01:15 | 41.48011 | -86.15931 | 13612 ft | 344 kts | 285° |
| 2026-04-23 01:15 | 41.48580 | -86.19016 | 12853 ft | 340 kts | 285° |
| 2026-04-23 01:15 | 41.49140 | -86.22063 | 12079 ft | 336 kts | 285° |
| 2026-04-23 01:15 | 41.49692 | -86.25074 | 11462 ft | 329 kts | 285° |
| 2026-04-23 01:16 | 41.50209 | -86.27908 | 11480 ft | 302 kts | 285° |
| 2026-04-23 01:16 | 41.50691 | -86.30547 | 11447 ft | 285 kts | 285° |
| 2026-04-23 01:16 | 41.51152 | -86.33069 | 11323 ft | 275 kts | 285° |
| 2026-04-23 01:16 | 41.51599 | -86.35516 | 11179 ft | 267 kts | 285° |
| 2026-04-23 01:17 | 41.52034 | -86.37896 | 11064 ft | 263 kts | 285° |
| 2026-04-23 01:17 | 41.52343 | -86.40340 | 10910 ft | 272 kts | 273° |
| 2026-04-23 01:17 | 41.52327 | -86.42888 | 10755 ft | 276 kts | 271° |
| 2026-04-23 01:17 | 41.52305 | -86.45451 | 10613 ft | 277 kts | 271° |
| 2026-04-23 01:18 | 41.52286 | -86.48027 | 10473 ft | 277 kts | 271° |
| 2026-04-23 01:18 | 41.52266 | -86.50596 | 10341 ft | 276 kts | 271° |
| 2026-04-23 01:18 | 41.52248 | -86.53152 | 10207 ft | 275 kts | 271° |
| 2026-04-23 01:18 | 41.52228 | -86.55704 | 10076 ft | 275 kts | 270° |
| 2026-04-23 01:19 | 41.52209 | -86.58255 | 9932 ft | 275 kts | 270° |
| 2026-04-23 01:19 | 41.52188 | -86.60773 | 9742 ft | 274 kts | 270° |
| 2026-04-23 01:19 | 41.52167 | -86.63303 | 9572 ft | 273 kts | 270° |
| 2026-04-23 01:19 | 41.52145 | -86.65832 | 9401 ft | 272 kts | 270° |
| 2026-04-23 01:20 | 41.52123 | -86.68353 | 9235 ft | 272 kts | 270° |
| 2026-04-23 01:20 | 41.52101 | -86.70878 | 9063 ft | 271 kts | 270° |
| 2026-04-23 01:20 | 41.52078 | -86.73393 | 8887 ft | 271 kts | 270° |
| 2026-04-23 01:20 | 41.52056 | -86.75890 | 8716 ft | 270 kts | 270° |
| 2026-04-23 01:21 | 41.52032 | -86.78406 | 8545 ft | 270 kts | 270° |
| 2026-04-23 01:21 | 41.52007 | -86.80905 | 8373 ft | 269 kts | 270° |
| 2026-04-23 01:21 | 41.51982 | -86.83398 | 8207 ft | 268 kts | 270° |
| 2026-04-23 01:21 | 41.51957 | -86.85873 | 8039 ft | 267 kts | 269° |
| 2026-04-23 01:22 | 41.51932 | -86.88350 | 7872 ft | 266 kts | 270° |
| 2026-04-23 01:22 | 41.51905 | -86.90820 | 7702 ft | 265 kts | 270° |
| 2026-04-23 01:22 | 41.51879 | -86.93276 | 7523 ft | 264 kts | 269° |
| 2026-04-23 01:22 | 41.51851 | -86.95694 | 7370 ft | 263 kts | 269° |
| 2026-04-23 01:23 | 41.51824 | -86.98134 | 7223 ft | 263 kts | 269° |
| 2026-04-23 01:23 | 41.51796 | -87.00569 | 7127 ft | 262 kts | 269° |
| 2026-04-23 01:23 | 41.51767 | -87.03005 | 7061 ft | 262 kts | 269° |
| 2026-04-23 01:23 | 41.51738 | -87.05436 | 6994 ft | 262 kts | 269° |
| 2026-04-23 01:24 | 41.51708 | -87.07870 | 6877 ft | 262 kts | 269° |
| 2026-04-23 01:24 | 41.51677 | -87.10302 | 6630 ft | 262 kts | 269° |
| 2026-04-23 01:24 | 41.51647 | -87.12737 | 6331 ft | 262 kts | 269° |
| 2026-04-23 01:24 | 41.51617 | -87.15152 | 6084 ft | 258 kts | 269° |
| 2026-04-23 01:25 | 41.51712 | -87.17527 | 5963 ft | 257 kts | 275° |
| 2026-04-23 01:25 | 41.51857 | -87.19849 | 5867 ft | 249 kts | 275° |
| 2026-04-23 01:25 | 41.51989 | -87.22073 | 5755 ft | 231 kts | 275° |
| 2026-04-23 01:25 | 41.52107 | -87.24143 | 5646 ft | 215 kts | 274° |
| 2026-04-23 01:26 | 41.52215 | -87.26099 | 5557 ft | 211 kts | 274° |
| 2026-04-23 01:26 | 41.52323 | -87.28056 | 5444 ft | 212 kts | 274° |
| 2026-04-23 01:26 | 41.52429 | -87.30019 | 5360 ft | 212 kts | 274° |
| 2026-04-23 01:26 | 41.52534 | -87.31985 | 5288 ft | 212 kts | 274° |
| 2026-04-23 01:27 | 41.52640 | -87.33945 | 5209 ft | 212 kts | 274° |
| 2026-04-23 01:27 | 41.52743 | -87.35875 | 5113 ft | 201 kts | 274° |
| 2026-04-23 01:27 | 41.52838 | -87.37674 | 5004 ft | 190 kts | 274° |
| 2026-04-23 01:27 | 41.52928 | -87.39391 | 4898 ft | 175 kts | 274° |
| 2026-04-23 01:28 | 41.53011 | -87.40964 | 4759 ft | 172 kts | 274° |
| 2026-04-23 01:28 | 41.53098 | -87.42610 | 4646 ft | 182 kts | 274° |
| 2026-04-23 01:28 | 41.53187 | -87.44296 | 4520 ft | 187 kts | 275° |
| 2026-04-23 01:28 | 41.53279 | -87.46061 | 4413 ft | 188 kts | 274° |
| 2026-04-23 01:29 | 41.53368 | -87.47780 | 4311 ft | 188 kts | 274° |
| 2026-04-23 01:29 | 41.53458 | -87.49519 | 4208 ft | 188 kts | 274° |
| 2026-04-23 01:29 | 41.53548 | -87.51260 | 4106 ft | 188 kts | 274° |
| 2026-04-23 01:29 | 41.53638 | -87.52998 | 3995 ft | 187 kts | 275° |
| 2026-04-23 01:30 | 41.53727 | -87.54733 | 3900 ft | 187 kts | 274° |
| 2026-04-23 01:30 | 41.53816 | -87.56463 | 3796 ft | 187 kts | 274° |
| 2026-04-23 01:30 | 41.53904 | -87.58190 | 3695 ft | 186 kts | 274° |
| 2026-04-23 01:30 | 41.53992 | -87.59908 | 3594 ft | 186 kts | 274° |
| 2026-04-23 01:31 | 41.54314 | -87.61533 | 3440 ft | 175 kts | 298° |
| 2026-04-23 01:31 | 41.55053 | -87.62742 | 3207 ft | 162 kts | 318° |
| 2026-04-23 01:31 | 41.55948 | -87.63541 | 2920 ft | 152 kts | 329° |
| 2026-04-23 01:31 | 41.56880 | -87.64283 | 2629 ft | 155 kts | 317° |
| 2026-04-23 01:32 | 41.57610 | -87.65355 | 2445 ft | 157 kts | 307° |
| 2026-04-23 01:32 | 41.58326 | -87.66459 | 2282 ft | 159 kts | 311° |
| 2026-04-23 01:32 | 41.59085 | -87.67533 | 2207 ft | 157 kts | 312° |
| 2026-04-23 01:32 | 41.59838 | -87.68591 | 2188 ft | 157 kts | 313° |
| 2026-04-23 01:33 | 41.60585 | -87.69639 | 2156 ft | 157 kts | 312° |
| 2026-04-23 01:33 | 41.61347 | -87.70708 | 2140 ft | 157 kts | 312° |
| 2026-04-23 01:33 | 41.62099 | -87.71763 | 2134 ft | 157 kts | 312° |
| 2026-04-23 01:33 | 41.62849 | -87.72817 | 2129 ft | 156 kts | 311° |
| 2026-04-23 01:34 | 41.63595 | -87.73864 | 2128 ft | 156 kts | 311° |
| 2026-04-23 01:34 | 41.64347 | -87.74921 | 2125 ft | 155 kts | 311° |
| 2026-04-23 01:34 | 41.65090 | -87.75966 | 2117 ft | 155 kts | 311° |
| 2026-04-23 01:34 | 41.65827 | -87.77016 | 2115 ft | 155 kts | 316° |
| 2026-04-23 01:35 | 41.66564 | -87.78043 | 2111 ft | 156 kts | 316° |
| 2026-04-23 01:35 | 41.67322 | -87.79109 | 2109 ft | 157 kts | 316° |
| 2026-04-23 01:35 | 41.68143 | -87.80085 | 2082 ft | 156 kts | 336° |
| 2026-04-23 01:35 | 41.69177 | -87.80394 | 2094 ft | 153 kts | 355° |
| 2026-04-23 01:36 | 41.70239 | -87.80565 | 2041 ft | 154 kts | 358° |
| 2026-04-23 01:36 | 41.71305 | -87.80655 | 1946 ft | 153 kts | 1° |
| 2026-04-23 01:36 | 41.72370 | -87.80698 | 1834 ft | 152 kts | 1° |
| 2026-04-23 01:36 | 41.73419 | -87.80737 | 1711 ft | 151 kts | 1° |
| 2026-04-23 01:37 | 41.74407 | -87.80375 | 1566 ft | 147 kts | 36° |
| 2026-04-23 01:37 | 41.75166 | -87.79484 | 1451 ft | 146 kts | 48° |
| 2026-04-23 01:37 | 41.75904 | -87.78493 | 1317 ft | 150 kts | 45° |
| 2026-04-23 01:37 | 41.76652 | -87.77561 | 1113 ft | 145 kts | 46° |
| 2026-04-23 01:38 | 41.77365 | -87.76630 | 849 ft | 141 kts | 45° |
| 2026-04-23 01:38 | 41.78082 | -87.75729 | 650 ft | 140 kts | 45° |
| 2026-04-23 01:38 | 41.78679 | -87.74969 | 627 ft | 86 kts | 43° |
| 2026-04-23 01:38 | 41.78960 | -87.74617 | 624 ft | 38 kts | 44° |
| 2026-04-23 01:39 | 41.79041 | -87.74508 | 621 ft | 4 kts | 60° |
| 2026-04-23 01:39 | 41.79037 | -87.74470 | 621 ft | 5 kts | 115° |
| 2026-04-23 01:39 | 41.79027 | -87.74452 | 621 ft | 0 kts | 128° |
| 2026-04-23 01:40 | 41.79025 | -87.74448 | 621 ft | 0 kts | 129° |
| 2026-04-23 01:40 | 41.79023 | -87.74446 | 621 ft | 0 kts | 129° |
| 2026-04-23 01:41 | 41.79020 | -87.74442 | 621 ft | 2 kts | 131° |
| 2026-04-23 01:41 | 41.79006 | -87.74428 | 621 ft | 5 kts | 153° |
| 2026-04-23 01:41 | 41.78961 | -87.74447 | 630 ft | 9 kts | 221° |
| 2026-04-23 01:41 | 41.78901 | -87.74524 | 631 ft | 11 kts | 224° |
| 2026-04-23 01:42 | 41.78864 | -87.74573 | 630 ft | 12 kts | 225° |
| 2026-04-23 01:42 | 41.78796 | -87.74663 | 625 ft | 11 kts | 224° |
| 2026-04-23 01:42 | 41.78757 | -87.74712 | 631 ft | 8 kts | 223° |
| 2026-04-23 01:42 | 41.78705 | -87.74773 | 620 ft | 11 kts | 212° |
| 2026-04-23 01:43 | 41.78641 | -87.74786 | 621 ft | 7 kts | 177° |
| 2026-04-23 01:43 | 41.78592 | -87.74761 | 627 ft | 9 kts | 134° |
| 2026-04-23 01:43 | 41.78544 | -87.74696 | 634 ft | 11 kts | 135° |
| 2026-04-23 01:43 | 41.78480 | -87.74608 | 626 ft | 12 kts | 132° |
| 2026-04-23 01:44 | 41.78440 | -87.74549 | 627 ft | 10 kts | 133° |
| 2026-04-23 01:44 | 41.78398 | -87.74489 | 626 ft | 7 kts | 135° |
| 2026-04-23 01:44 | 41.78359 | -87.74437 | 619 ft | 8 kts | 135° |
| 2026-04-23 01:44 | 41.78354 | -87.74367 | 627 ft | 9 kts | 51° |
| 2026-04-23 01:45 | 41.78377 | -87.74338 | 628 ft | 6 kts | 44° |
| 2026-04-23 01:45 | 41.78407 | -87.74297 | 617 ft | 5 kts | 45° |
| 2026-04-23 01:45 | 41.78428 | -87.74280 | 617 ft | 2 kts | 1° |
| 2026-04-23 01:45 | 41.78445 | -87.74286 | 627 ft | 2 kts | 345° |
| 2026-04-23 01:46 | 41.78461 | -87.74292 | 617 ft | 0 kts | 345° |
| 2026-04-23 01:46 | 41.78465 | -87.74294 | 616 ft | 3 kts | 346° |
| 2026-04-23 01:46 | 41.78472 | -87.74296 | 616 ft | 0 kts | 346° |